Wantage, United Kingdom
Current Conditions -  °F | °C
As of 9:50 AM on Saturday 22 Nov 2014 (Local Time) from EGVN Reporting Station
Broken Clouds Broken Clouds  
Wind Chill: 55°   Ceiling: 4000
Heat Index: 55°   Visibility: 6mi
Dew Point: 54°   Wind: 5mph
Humidity: 94%   Direction: 160°SSE
Pressure: 29.85"   Gusts: NA
Location:  51.6°N, 1.42°W
Report Text: EGVN 220950Z 16004KT 9999 FEW010 BKN040 13/12 Q1011 TEMPO SCT020
Loading
Personal Weather Stations






























Interactive Weather Map New forecast layout! Learn more

10-Day Weather Forecast

Advertisements
Track Severe Weather on mobile